Elafonisos — D5HH7 — position and weather

sailwx.info

Track history (hours):
 
Tides and Currents Weather Stations Pressure Air Temp Water Temp Dewpoint Dewpoint Depression Visibility Wind Speed Wind Dir Waves Ship Positions

Elafonisos

Last reported at 2018-Jun-17 17:17 UTC. Time now 2018-Jun-22 16:46 UTC.
Position N 37°43' E 025°50'.

Length 209 m; draft 8.5 m.

Type: Cargo ship. MMSI: 636016689.

Date/timePositionNaut miles runAvg speedWind from/ knotsBaromVisibWave heightAir tempDewpointWater temp
2018-Jun-17 17:17N 37°43' E 025°50'312.1
2018-Jun-17 17:00N 37°39' E 025°50'611.6
2018-Jun-17 16:30N 37°34' E 025°51'511.0
2018-Jun-17 16:00N 37°28' E 025°53'31611.0
2018-Jun-16 11:19N 34°19' E 031°05'311.0
2018-Jun-16 11:00N 34°18' E 031°09'7111.7
2018-Jun-16 04:56N 33°44' E 032°25'512.2
2018-Jun-16 04:31N 33°42' E 032°30'612.5
2018-Jun-16 04:01N 33°39' E 032°37'612.4
2018-Jun-16 03:31N 33°36' E 032°43'612.3
2018-Jun-16 03:00N 33°33' E 032°50'612.2
2018-Jun-16 02:30N 33°30' E 032°56'612.2
2018-Jun-16 02:00N 33°27' E 033°03'612.1
2018-Jun-16 01:30N 33°24' E 033°09'612.0
2018-Jun-16 01:00N 33°22' E 033°15'611.9
2018-Jun-16 00:30N 33°19' E 033°22'611.7
2018-Jun-16 00:00N 33°16' E 033°28'611.9
2018-Jun-15 23:30N 33°13' E 033°34'612.0
2018-Jun-15 23:00N 33°11' E 033°41'612.1
2018-Jun-15 22:30N 33°08' E 033°47'612.0
2018-Jun-15 22:00N 33°05' E 033°53'611.9
2018-Jun-15 21:30N 33°02' E 033°60'611.9
2018-Jun-15 21:00N 33°01' E 034°07'612.0
2018-Jun-15 20:30N 32°60' E 034°14'612.1
2018-Jun-15 20:00N 32°58' E 034°21'612.0
2018-Jun-15 19:30N 32°57' E 034°28'712.0
2018-Jun-15 18:57N 32°56' E 034°35'511.9
2018-Jun-15 18:30N 32°55' E 034°42'611.9
2018-Jun-15 18:00N 32°53' E 034°49'611.7
2018-Jun-15 17:30N 32°53' E 034°55'5 0.4
2018-Jun-15 02:32N 32°50' E 035°01'1 6.4
2018-Jun-15 02:19N 32°51' E 034°60'1 3.1
2018-Jun-15 01:56N 32°52' E 034°59'3 6.3
2018-Jun-15 01:30N 32°52' E 034°56'510.0
2018-Jun-15 00:58N 32°50' E 034°50'613.7
2018-Jun-15 00:31N 32°44' E 034°48'713.8
2018-Jun-15 00:00N 32°37' E 034°46'714.1
2018-Jun-14 23:30N 32°30' E 034°44'714.1
2018-Jun-14 23:00N 32°23' E 034°41'714.1
2018-Jun-14 22:30N 32°17' E 034°39'714.0
2018-Jun-14 22:00N 32°10' E 034°36'713.8
2018-Jun-14 21:31N 32°03' E 034°34'1013.3
2018-Jun-14 20:44N 31°54' E 034°30'311.8
2018-Jun-14 20:30N 31°52' E 034°33'5 9.7
2018-Jun-14 20:00N 31°51' E 034°38'  
2018-Jun-10 13:26N 31°49' E 034°39'0 0.0
2018-Jun-10 12:50N 31°49' E 034°39'1 0.0
2018-Jun-09 07:15N 31°51' E 034°38'3 1.9
2018-Jun-09 05:29N 31°52' E 034°35'1 1.0
2018-Jun-09 04:58N 31°51' E 034°34'1 0.1
2018-Jun-08 20:48N 31°51' E 034°35'0 0.0
2018-Jun-08 20:18N 31°51' E 034°35'0 0.0
2018-Jun-08 19:36N 31°51' E 034°35'0 0.0
2018-Jun-08 19:18N 31°51' E 034°35'0 0.0
2018-Jun-08 19:00N 31°51' E 034°35'0 0.0
2018-Jun-08 15:36N 31°51' E 034°35'0 0.1
2018-Jun-08 15:30N 31°51' E 034°35'0 0.0
2018-Jun-08 14:57N 31°51' E 034°35'0 0.0
2018-Jun-08 14:30N 31°51' E 034°35'0 0.0
2018-Jun-08 14:00N 31°51' E 034°35'0 0.0
2018-Jun-08 13:27N 31°51' E 034°35'0 0.0
2018-Jun-08 12:57N 31°51' E 034°35'0 0.0
2018-Jun-08 12:27N 31°51' E 034°35'0 0.0
2018-Jun-08 11:57N 31°51' E 034°35'0 0.0
2018-Jun-08 11:30N 31°51' E 034°35'0 0.0
2018-Jun-08 10:33N 31°51' E 034°35'0 0.0
2018-Jun-08 10:18N 31°51' E 034°35'0 0.0
2018-Jun-07 17:46N 31°51' E 034°35'0 0.1
2018-Jun-07 17:25N 31°51' E 034°35'  
Track history (hours):
 
Tides and Currents Weather Stations Pressure Air Temp Water Temp Dewpoint Dewpoint Depression Visibility Wind Speed Wind Dir Waves Ship Positions

Elafonisos

Last reported at 2018-Jun-17 17:17 UTC. Time now 2018-Jun-22 16:46 UTC.
Position N 37°43' E 025°50'.

Length 209 m; draft 8.5 m.

Type: Cargo ship. MMSI: 636016689.

Date/timePositionNaut miles runAvg speedWind from/ knotsBaromVisibWave heightAir tempDewpointWater temp
2018-Jun-17 17:17N 37°43' E 025°50'312.1
2018-Jun-17 17:00N 37°39' E 025°50'611.6
2018-Jun-17 16:30N 37°34' E 025°51'511.0
2018-Jun-17 16:00N 37°28' E 025°53'31611.0
2018-Jun-16 11:19N 34°19' E 031°05'311.0
2018-Jun-16 11:00N 34°18' E 031°09'7111.7
2018-Jun-16 04:56N 33°44' E 032°25'512.2
2018-Jun-16 04:31N 33°42' E 032°30'612.5
2018-Jun-16 04:01N 33°39' E 032°37'612.4
2018-Jun-16 03:31N 33°36' E 032°43'612.3
2018-Jun-16 03:00N 33°33' E 032°50'612.2
2018-Jun-16 02:30N 33°30' E 032°56'612.2
2018-Jun-16 02:00N 33°27' E 033°03'612.1
2018-Jun-16 01:30N 33°24' E 033°09'612.0
2018-Jun-16 01:00N 33°22' E 033°15'611.9
2018-Jun-16 00:30N 33°19' E 033°22'611.7
2018-Jun-16 00:00N 33°16' E 033°28'611.9
2018-Jun-15 23:30N 33°13' E 033°34'612.0
2018-Jun-15 23:00N 33°11' E 033°41'612.1
2018-Jun-15 22:30N 33°08' E 033°47'612.0
2018-Jun-15 22:00N 33°05' E 033°53'611.9
2018-Jun-15 21:30N 33°02' E 033°60'611.9
2018-Jun-15 21:00N 33°01' E 034°07'612.0
2018-Jun-15 20:30N 32°60' E 034°14'612.1
2018-Jun-15 20:00N 32°58' E 034°21'612.0
2018-Jun-15 19:30N 32°57' E 034°28'712.0
2018-Jun-15 18:57N 32°56' E 034°35'511.9
2018-Jun-15 18:30N 32°55' E 034°42'611.9
2018-Jun-15 18:00N 32°53' E 034°49'611.7
2018-Jun-15 17:30N 32°53' E 034°55'5 0.4
2018-Jun-15 02:32N 32°50' E 035°01'1 6.4
2018-Jun-15 02:19N 32°51' E 034°60'1 3.1
2018-Jun-15 01:56N 32°52' E 034°59'3 6.3
2018-Jun-15 01:30N 32°52' E 034°56'510.0
2018-Jun-15 00:58N 32°50' E 034°50'613.7
2018-Jun-15 00:31N 32°44' E 034°48'713.8
2018-Jun-15 00:00N 32°37' E 034°46'714.1
2018-Jun-14 23:30N 32°30' E 034°44'714.1
2018-Jun-14 23:00N 32°23' E 034°41'714.1
2018-Jun-14 22:30N 32°17' E 034°39'714.0
2018-Jun-14 22:00N 32°10' E 034°36'713.8
2018-Jun-14 21:31N 32°03' E 034°34'1013.3
2018-Jun-14 20:44N 31°54' E 034°30'311.8
2018-Jun-14 20:30N 31°52' E 034°33'5 9.7
2018-Jun-14 20:00N 31°51' E 034°38'  
2018-Jun-10 13:26N 31°49' E 034°39'0 0.0
2018-Jun-10 12:50N 31°49' E 034°39'1 0.0
2018-Jun-09 07:15N 31°51' E 034°38'3 1.9
2018-Jun-09 05:29N 31°52' E 034°35'1 1.0
2018-Jun-09 04:58N 31°51' E 034°34'1 0.1
2018-Jun-08 20:48N 31°51' E 034°35'0 0.0
2018-Jun-08 20:18N 31°51' E 034°35'0 0.0
2018-Jun-08 19:36N 31°51' E 034°35'0 0.0
2018-Jun-08 19:18N 31°51' E 034°35'0 0.0
2018-Jun-08 19:00N 31°51' E 034°35'0 0.0
2018-Jun-08 15:36N 31°51' E 034°35'0 0.1
2018-Jun-08 15:30N 31°51' E 034°35'0 0.0
2018-Jun-08 14:57N 31°51' E 034°35'0 0.0
2018-Jun-08 14:30N 31°51' E 034°35'0 0.0
2018-Jun-08 14:00N 31°51' E 034°35'0 0.0
2018-Jun-08 13:27N 31°51' E 034°35'0 0.0
2018-Jun-08 12:57N 31°51' E 034°35'0 0.0
2018-Jun-08 12:27N 31°51' E 034°35'0 0.0
2018-Jun-08 11:57N 31°51' E 034°35'0 0.0
2018-Jun-08 11:30N 31°51' E 034°35'0 0.0
2018-Jun-08 10:33N 31°51' E 034°35'0 0.0
2018-Jun-08 10:18N 31°51' E 034°35'0 0.0
2018-Jun-07 17:46N 31°51' E 034°35'0 0.1
2018-Jun-07 17:25N 31°51' E 034°35'  

Dump ship's entire track history